This is the latest recevied weather packets stored in our database for station/object KF5VOI. If no packets are shown the sender has not sent any weather packets the latest 10 day(s).
| Time | Temp. | Humidity | Pressure | Rain* | Wind** | Luminosity | Snow |
|---|---|---|---|---|---|---|---|
| 1787565395 | 26.67° C | 99% | 1016.7 hPa | 0 mm | - | - | - |
| 1787561795 | 27.22° C | 99% | 1016.7 hPa | 0 mm | - | - | - |
| 1787559995 | 27.22° C | 99% | 1016.5 hPa | 0 mm | - | - | - |
| 1787556395 | 27.22° C | 99% | 1016.6 hPa | 0 mm | - | - | - |
| 1787554595 | 27.78° C | 99% | 1016.6 hPa | 0 mm | - | - | - |
| 1787552795 | 27.78° C | 99% | 1016.9 hPa | 0 mm | - | - | - |
| 1787550995 | 28.33° C | 99% | 1017 hPa | 0 mm | - | - | - |
| 1787549195 | 27.78° C | 98% | 1017.1 hPa | 0 mm | - | - | - |
| 1787547395 | 28.33° C | 95% | 1017 hPa | 0 mm | - | - | - |
| 1787545596 | 28.33° C | 91% | 1016.9 hPa | 0 mm | - | - | - |
| 1787543795 | 28.33° C | 90% | 1017 hPa | 0 mm | - | - | - |
| 1787541995 | 28.89° C | 88% | 1017.1 hPa | 0 mm | - | - | - |
| 1787540195 | 28.89° C | 89% | 1017.1 hPa | 0 mm | - | - | - |
| 1787538395 | 28.89° C | 88% | 1016.8 hPa | 0 mm | - | - | - |
| 1787536595 | 28.89° C | 86% | 1016.6 hPa | 0 mm | - | - | - |
| 1787534795 | 29.44° C | 82% | 1016.2 hPa | 0 mm | - | - | - |
| 1787532995 | 30.56° C | 74% | 1015.5 hPa | 0 mm | - | - | - |
| 1787531197 | 31.11° C | 72% | 1015.5 hPa | 0 mm | - | - | - |
| 1787529395 | 31.11° C | 72% | 1014.9 hPa | 0 mm | - | - | - |
| 1787525796 | 30.56° C | 71% | 1016.6 hPa | 0 mm | - | - | - |
| 1787523995 | 36.11° C | 58% | 1015.9 hPa | 0 mm | - | - | - |
| 1787520395 | 38.89° C | 57% | 1015.5 hPa | 0 mm | - | - | - |
| 1787518596 | 37.22° C | 63% | 1015.7 hPa | 0 mm | - | - | - |
| 1787516795 | 36.11° C | 64% | 1015.9 hPa | 0 mm | - | - | - |
| 1787514995 | 37.78° C | 62% | 1016.2 hPa | 0 mm | - | - | - |
* Rain latest hour (hover to see other rain measurements)
** Current wind speed in m/s (hover to see current wind gust speed)